Time;durP1;ratioP1;P1;durP2;ratioP2;P2;SDS_P1;SDS_P2;PMS_P1;PMS_P2;Temp;Humidity;BMP_temperature;BMP_pressure;BME280_temperature;BME280_humidity;BME280_pressure;Samples;Min_cycle;Max_cycle;Signal;HPM_P1;HPM_P2
2022/11/12 00:00:18;;;;;;;149.35;82.93;;;5.90;99.90;;;;;;5116088;28;20055;-71
2022/11/12 00:03:04;;;;;;;153.35;84.75;;;5.90;99.90;;;;;;5115937;28;20572;-71
2022/11/12 00:05:49;;;;;;;160.95;85.57;;;5.90;99.90;;;;;;5115301;28;20065;-71
2022/11/12 00:08:33;;;;;;;171.43;86.88;;;5.90;99.90;;;;;;5115833;28;20050;-71
2022/11/12 00:11:18;;;;;;;162.82;84.95;;;5.80;99.90;;;;;;5115833;28;20134;-71
2022/11/12 00:14:03;;;;;;;154.40;81.88;;;5.80;99.90;;;;;;5115521;28;20042;-71
2022/11/12 00:16:47;;;;;;;152.70;79.97;;;5.70;99.90;;;;;;5115541;28;20034;-71
2022/11/12 00:19:32;;;;;;;134.80;73.97;;;5.70;99.90;;;;;;5115482;28;20054;-71
2022/11/12 00:22:17;;;;;;;127.60;70.18;;;5.70;99.90;;;;;;5115329;28;20397;-71
2022/11/12 00:25:01;;;;;;;126.35;67.60;;;5.70;99.90;;;;;;5115235;28;20070;-71
2022/11/12 00:27:46;;;;;;;121.63;66.88;;;5.60;99.90;;;;;;5115510;28;20100;-71
2022/11/12 00:30:31;;;;;;;119.55;64.35;;;5.40;99.90;;;;;;5115274;28;20039;-71
2022/11/12 00:33:15;;;;;;;125.95;69.07;;;5.40;99.90;;;;;;5115275;28;20043;-71
2022/11/12 00:36:00;;;;;;;119.13;64.00;;;5.30;99.90;;;;;;5115184;28;20051;-71
2022/11/12 00:38:44;;;;;;;111.65;64.95;;;5.40;99.90;;;;;;5115126;28;20389;-71
2022/11/12 00:41:29;;;;;;;129.65;69.97;;;5.50;99.90;;;;;;5115215;28;20499;-71
2022/11/12 00:44:14;;;;;;;138.95;70.03;;;5.40;99.90;;;;;;5115032;28;20041;-71
2022/11/12 00:46:58;;;;;;;128.98;70.78;;;5.30;99.90;;;;;;5115326;28;20057;-71
2022/11/12 00:49:43;;;;;;;143.52;77.45;;;5.20;99.90;;;;;;5115041;28;20041;-71
2022/11/12 00:52:28;;;;;;;148.57;81.30;;;5.20;99.90;;;;;;5115389;28;20050;-71
2022/11/12 00:55:12;;;;;;;176.95;90.20;;;5.20;99.90;;;;;;5115213;28;20120;-71
2022/11/12 00:57:58;;;;;;;182.88;95.55;;;5.30;99.90;;;;;;5114893;28;20061;-70
2022/11/12 01:00:42;;;;;;;141.68;76.85;;;5.30;99.90;;;;;;5114740;28;20108;-70
2022/11/12 01:03:27;;;;;;;148.65;78.20;;;5.50;99.90;;;;;;5115100;28;20050;-71
2022/11/12 01:06:14;;;;;;;141.15;73.18;;;5.60;99.90;;;;;;5114994;28;20062;-71
2022/11/12 01:08:59;;;;;;;121.25;66.35;;;5.60;99.90;;;;;;5099819;28;20088;-71
2022/11/12 01:11:43;;;;;;;113.50;60.67;;;5.60;99.90;;;;;;5114976;28;20118;-71
2022/11/12 01:14:28;;;;;;;109.75;59.03;;;5.80;99.90;;;;;;5114939;28;20100;-71
2022/11/12 01:17:13;;;;;;;118.80;63.67;;;5.90;99.90;;;;;;5118416;28;20059;-71
2022/11/12 01:19:57;;;;;;;123.82;65.03;;;5.70;99.90;;;;;;5119231;28;20081;-71
2022/11/12 01:22:42;;;;;;;110.38;59.85;;;5.60;99.90;;;;;;5118731;28;20467;-71
2022/11/12 01:25:27;;;;;;;112.88;61.45;;;5.50;99.90;;;;;;5103644;28;20112;-71
2022/11/12 01:28:11;;;;;;;108.50;62.22;;;5.50;99.90;;;;;;5118781;28;20034;-71
2022/11/12 01:30:56;;;;;;;126.43;65.30;;;5.40;99.90;;;;;;5118998;28;20432;-71
2022/11/12 01:33:42;;;;;;;124.93;67.80;;;5.30;99.90;;;;;;5118652;28;20061;-71
2022/11/12 01:36:30;;;;;;;122.35;61.78;;;5.30;99.90;;;;;;5118847;28;20495;-71
2022/11/12 01:39:14;;;;;;;116.88;62.35;;;5.50;99.90;;;;;;5118789;28;20115;-71
2022/11/12 01:41:59;;;;;;;117.47;58.80;;;5.60;99.90;;;;;;5118755;28;20042;-71
2022/11/12 01:44:45;;;;;;;112.20;58.95;;;5.60;99.90;;;;;;5118710;28;20075;-71
2022/11/12 01:47:33;;;;;;;109.70;57.28;;;5.60;99.90;;;;;;5118443;28;20046;-71
2022/11/12 01:50:30;;;;;;;116.03;58.60;;;5.60;99.90;;;;;;5118184;28;20147;-71
2022/11/12 01:53:15;;;;;;;99.43;53.55;;;5.70;99.90;;;;;;5118491;28;20377;-71
2022/11/12 01:56:03;;;;;;;109.47;57.35;;;5.90;99.90;;;;;;5118199;28;20080;-71
2022/11/12 01:58:52;;;;;;;103.93;56.17;;;5.60;99.90;;;;;;5117957;28;20050;-71
2022/11/12 02:01:37;;;;;;;112.40;59.35;;;5.50;99.90;;;;;;5118130;28;20101;-71
2022/11/12 02:04:22;;;;;;;100.40;54.22;;;5.40;99.90;;;;;;5117933;28;20094;-71
2022/11/12 02:07:08;;;;;;;101.15;55.20;;;5.60;99.90;;;;;;5118260;28;20467;-71
2022/11/12 02:09:53;;;;;;;106.35;57.80;;;5.60;99.90;;;;;;5117948;28;20035;-71
2022/11/12 02:15:41;;;;;;;107.90;57.50;;;5.50;99.90;;;;;;5117902;28;20103;-71
2022/11/12 02:18:25;;;;;;;109.15;58.25;;;5.60;99.90;;;;;;5117848;28;20085;-71
2022/11/12 02:21:10;;;;;;;103.55;54.60;;;5.60;99.90;;;;;;5117994;28;20580;-71
2022/11/12 02:24:03;;;;;;;110.55;57.97;;;5.60;99.90;;;;;;5117722;28;20042;-71
2022/11/12 02:26:52;;;;;;;114.93;62.58;;;5.60;99.90;;;;;;5117624;28;20093;-71
2022/11/12 02:29:45;;;;;;;115.70;58.35;;;5.60;99.90;;;;;;5117689;28;20038;-71
2022/11/12 02:32:29;;;;;;;110.43;59.65;;;5.70;99.90;;;;;;5117422;28;20042;-71
2022/11/12 02:35:14;;;;;;;105.32;54.83;;;5.70;99.90;;;;;;5117502;28;20098;-71
2022/11/12 02:37:59;;;;;;;108.05;56.17;;;5.80;99.90;;;;;;5117566;28;20042;-71
2022/11/12 02:40:43;;;;;;;114.07;56.08;;;6.00;99.90;;;;;;5117465;28;20390;-71
2022/11/12 02:43:28;;;;;;;107.63;58.55;;;6.00;99.90;;;;;;5117598;28;20444;-71
2022/11/12 02:46:13;;;;;;;112.75;56.58;;;6.00;99.90;;;;;;5117537;28;20100;-71
2022/11/12 02:48:57;;;;;;;116.65;60.83;;;5.90;99.90;;;;;;5117165;28;20050;-71
2022/11/12 02:51:42;;;;;;;112.75;55.97;;;6.00;99.90;;;;;;5101783;28;20042;-71
2022/11/12 02:54:27;;;;;;;113.80;59.53;;;5.90;99.90;;;;;;5117182;28;20498;-71
2022/11/12 02:57:11;;;;;;;119.05;63.67;;;5.90;99.90;;;;;;5117189;28;20035;-71
2022/11/12 02:59:56;;;;;;;139.80;71.43;;;5.80;99.90;;;;;;5096784;28;20055;-71
2022/11/12 03:02:57;;;;;;;148.48;78.38;;;5.80;99.90;;;;;;5096625;28;20046;-71
2022/11/12 03:05:43;;;;;;;97.72;51.67;;;5.80;99.90;;;;;;5088797;28;20086;-71
2022/11/12 03:08:27;;;;;;;90.55;48.00;;;5.80;99.90;;;;;;5096545;28;20070;-71
2022/11/12 03:11:15;;;;;;;87.20;49.28;;;5.80;99.90;;;;;;5072779;28;20504;-71
2022/11/12 03:14:01;;;;;;;89.03;49.47;;;5.70;99.90;;;;;;5076264;28;20067;-71
2022/11/12 03:16:45;;;;;;;96.15;51.17;;;5.70;99.90;;;;;;5076046;28;20039;-71
2022/11/12 03:19:30;;;;;;;116.25;56.45;;;5.70;99.90;;;;;;5075951;28;20044;-71
2022/11/12 03:22:14;;;;;;;103.68;53.33;;;6.00;99.90;;;;;;5075877;28;20437;-71
2022/11/12 03:24:59;;;;;;;105.10;59.17;;;6.00;99.90;;;;;;5075859;28;20035;-72
2022/11/12 03:27:44;;;;;;;120.18;62.45;;;5.90;99.90;;;;;;5075785;28;20043;-71
2022/11/12 03:30:31;;;;;;;126.15;66.38;;;5.90;99.90;;;;;;5075724;28;20040;-71
2022/11/12 03:33:16;;;;;;;119.30;64.45;;;5.90;99.90;;;;;;5075662;28;20079;-71
2022/11/12 03:36:00;;;;;;;120.72;63.58;;;6.00;99.90;;;;;;5075819;28;20058;-71
2022/11/12 03:38:45;;;;;;;109.88;56.83;;;6.10;99.90;;;;;;5075138;28;20043;-71
2022/11/12 03:41:29;;;;;;;93.00;51.53;;;5.90;99.90;;;;;;5075371;28;20265;-71
2022/11/12 03:44:14;;;;;;;104.47;53.28;;;5.90;99.90;;;;;;5075461;28;20091;-71
2022/11/12 03:46:59;;;;;;;97.28;53.05;;;6.00;99.90;;;;;;5075701;28;20047;-71
2022/11/12 03:49:44;;;;;;;99.82;54.70;;;6.00;99.90;;;;;;5075170;28;20059;-71
2022/11/12 03:52:28;;;;;;;104.85;55.88;;;6.00;99.90;;;;;;5073280;28;20055;-71
2022/11/12 03:55:15;;;;;;;98.72;56.05;;;6.30;99.90;;;;;;5075480;28;20195;-71
2022/11/12 03:58:00;;;;;;;97.40;55.05;;;6.00;99.90;;;;;;5079227;28;20039;-71
2022/11/12 04:00:44;;;;;;;94.07;49.75;;;6.00;99.90;;;;;;5095674;28;20121;-71
2022/11/12 04:03:29;;;;;;;95.75;50.88;;;5.90;99.90;;;;;;5095480;28;20043;-71
2022/11/12 04:09:17;;;;;;;94.63;53.05;;;5.80;99.90;;;;;;5101784;28;20088;-71
2022/11/12 04:13:26;;;;;;;91.32;51.55;;;5.70;99.90;;;;;;5115554;28;20443;-72
2022/11/12 04:15:06;;;;;;;94.10;49.70;;;5.90;99.90;;;;;;5115777;28;20061;-71
2022/11/12 04:23:56;;;;;;;119.63;59.75;;;5.90;99.90;;;;;;5115429;28;20043;-71
2022/11/12 04:26:41;;;;;;;111.10;55.40;;;5.90;99.90;;;;;;5115362;28;20572;-71
2022/11/12 04:32:30;;;;;;;101.78;52.22;;;6.10;99.90;;;;;;5115409;28;20084;-71
2022/11/12 04:35:15;;;;;;;107.63;55.55;;;6.00;99.90;;;;;;5115309;28;20106;-71
2022/11/12 04:38:00;;;;;;;102.40;54.67;;;5.90;99.90;;;;;;5115393;28;20039;-71
2022/11/12 04:46:50;;;;;;;110.57;58.28;;;5.90;99.90;;;;;;5114999;28;20085;-71
2022/11/12 04:49:35;;;;;;;106.75;56.35;;;5.90;99.90;;;;;;5115220;28;20104;-71
2022/11/12 04:52:19;;;;;;;108.38;58.63;;;6.00;99.90;;;;;;5114820;28;20355;-71
2022/11/12 04:55:05;;;;;;;109.88;60.30;;;6.00;99.90;;;;;;5115044;28;20591;-71
2022/11/12 04:57:49;;;;;;;110.50;61.25;;;5.80;99.90;;;;;;5112628;28;20377;-71
2022/11/12 05:00:34;;;;;;;116.55;62.97;;;5.80;99.90;;;;;;5115085;28;20104;-71
2022/11/12 05:03:18;;;;;;;110.30;58.47;;;5.90;99.90;;;;;;5114807;28;20049;-71
2022/11/12 05:06:50;;;;;;;112.97;62.20;;;5.80;99.90;;;;;;5114833;28;20385;-71
2022/11/12 05:09:11;;;;;;;118.25;61.95;;;5.90;99.90;;;;;;5114963;28;20545;-71
2022/11/12 05:11:56;;;;;;;119.32;62.97;;;5.90;99.90;;;;;;5114857;28;20057;-71
2022/11/12 05:14:41;;;;;;;118.80;62.22;;;5.90;99.90;;;;;;5114758;28;20062;-72
2022/11/12 05:17:25;;;;;;;110.18;60.42;;;5.80;99.90;;;;;;5114755;28;20086;-71
2022/11/12 05:20:11;;;;;;;104.45;57.60;;;5.80;99.90;;;;;;5114619;28;20053;-71
2022/11/12 05:22:56;;;;;;;112.30;59.47;;;5.90;99.90;;;;;;5114752;28;20105;-72
2022/11/12 05:25:40;;;;;;;111.63;62.38;;;6.00;99.90;;;;;;5114994;28;20039;-71
2022/11/12 05:28:25;;;;;;;118.93;63.67;;;6.10;99.90;;;;;;5115020;28;20047;-71
2022/11/12 05:31:10;;;;;;;123.70;65.28;;;6.00;99.90;;;;;;5114671;28;20043;-71
2022/11/12 05:33:54;;;;;;;130.00;71.15;;;6.00;99.90;;;;;;5114504;28;20041;-71
2022/11/12 05:36:39;;;;;;;166.30;89.10;;;5.90;99.90;;;;;;5114575;28;20039;-71
2022/11/12 05:39:24;;;;;;;156.32;85.63;;;6.00;99.90;;;;;;5114546;28;20034;-71
2022/11/12 05:42:08;;;;;;;141.40;79.43;;;6.00;99.90;;;;;;5114779;28;20038;-71
2022/11/12 05:44:53;;;;;;;133.43;70.82;;;6.00;99.90;;;;;;5114495;28;20093;-71
2022/11/12 05:47:38;;;;;;;123.13;64.25;;;6.00;99.90;;;;;;5114523;28;20044;-71
2022/11/12 05:50:22;;;;;;;110.97;60.70;;;6.20;99.90;;;;;;5114634;28;20046;-71
2022/11/12 05:53:07;;;;;;;122.97;64.20;;;6.30;99.90;;;;;;5114799;28;20051;-71
2022/11/12 05:55:52;;;;;;;116.57;57.88;;;6.20;99.90;;;;;;5114354;28;20043;-72
2022/11/12 05:58:37;;;;;;;120.32;59.88;;;6.30;99.90;;;;;;5114374;28;20061;-71
2022/11/12 06:01:21;;;;;;;125.25;61.03;;;6.30;99.90;;;;;;5114393;28;20043;-71
2022/11/12 06:04:06;;;;;;;96.22;50.58;;;6.40;99.90;;;;;;5117316;28;20046;-71
2022/11/12 06:06:50;;;;;;;97.32;48.80;;;6.40;99.90;;;;;;5118263;28;20037;-71
2022/11/12 06:09:35;;;;;;;94.25;47.50;;;6.40;99.90;;;;;;5108743;28;20046;-71
2022/11/12 06:12:20;;;;;;;101.35;48.97;;;6.40;99.90;;;;;;5097529;28;20047;-71
2022/11/12 06:15:05;;;;;;;100.07;51.88;;;6.40;99.90;;;;;;5097428;28;20128;-71
2022/11/12 06:17:49;;;;;;;100.53;52.00;;;6.50;99.90;;;;;;5097497;28;20082;-71
2022/11/12 06:20:35;;;;;;;114.28;57.92;;;6.40;99.90;;;;;;5097187;28;20084;-71
2022/11/12 06:23:19;;;;;;;121.53;62.35;;;6.50;99.90;;;;;;5097582;28;20394;-71
2022/11/12 06:26:04;;;;;;;108.25;58.65;;;6.50;99.90;;;;;;5097574;28;20119;-71
2022/11/12 06:28:49;;;;;;;106.32;58.40;;;6.70;99.90;;;;;;5097112;28;20086;-71
2022/11/12 06:31:33;;;;;;;120.07;62.75;;;6.80;99.90;;;;;;5097235;28;20039;-71
2022/11/12 06:34:18;;;;;;;111.78;60.47;;;6.70;99.90;;;;;;5096887;28;20038;-72
2022/11/12 06:37:03;;;;;;;132.05;68.72;;;6.50;99.90;;;;;;5097253;28;20047;-72
2022/11/12 06:39:48;;;;;;;121.28;65.50;;;6.60;99.90;;;;;;5097150;28;20038;-71
2022/11/12 06:42:33;;;;;;;123.20;66.88;;;6.60;99.90;;;;;;5096925;28;20035;-72
2022/11/12 06:45:17;;;;;;;119.07;62.08;;;6.70;99.90;;;;;;5097187;28;20447;-72
2022/11/12 06:48:02;;;;;;;133.90;69.05;;;6.50;99.90;;;;;;5096881;28;20028;-72
2022/11/12 06:50:47;;;;;;;139.73;78.35;;;6.60;99.90;;;;;;5096696;28;20063;-72
2022/11/12 06:53:31;;;;;;;158.30;84.32;;;6.80;99.90;;;;;;5096899;28;20035;-72
2022/11/12 06:56:16;;;;;;;138.48;73.63;;;6.80;99.90;;;;;;5096702;28;20069;-72
2022/11/12 06:59:01;;;;;;;127.65;66.07;;;6.90;99.90;;;;;;5107043;28;20105;-72
2022/11/12 07:01:45;;;;;;;132.63;70.18;;;7.10;99.90;;;;;;5116978;28;20089;-72
2022/11/12 07:04:30;;;;;;;126.45;68.30;;;7.10;99.90;;;;;;5117097;28;20051;-72
2022/11/12 07:07:15;;;;;;;133.63;73.20;;;7.30;99.90;;;;;;5116982;28;20038;-72
2022/11/12 07:09:59;;;;;;;185.15;95.90;;;7.40;99.90;;;;;;5123664;27;20084;-72
2022/11/12 07:12:44;;;;;;;180.38;101.13;;;7.40;99.90;;;;;;5137409;27;20084;-72
2022/11/12 07:15:28;;;;;;;156.35;85.72;;;7.40;99.90;;;;;;5137623;27;20130;-72
2022/11/12 07:18:13;;;;;;;166.50;86.93;;;7.60;99.90;;;;;;5137466;27;20034;-72
2022/11/12 07:21:05;;;;;;;234.68;128.88;;;7.90;99.90;;;;;;5137175;27;20122;-72
2022/11/12 07:23:49;;;;;;;196.43;102.40;;;7.90;99.90;;;;;;5137222;27;20046;-72
2022/11/12 07:26:34;;;;;;;166.05;86.00;;;7.90;99.90;;;;;;5137123;27;20172;-72
2022/11/12 07:29:19;;;;;;;157.95;85.85;;;7.90;99.90;;;;;;5137288;27;20045;-72
2022/11/12 07:32:04;;;;;;;154.07;85.63;;;8.10;99.90;;;;;;5137283;27;20131;-72
2022/11/12 07:34:49;;;;;;;165.50;86.78;;;8.20;99.90;;;;;;5136901;27;20042;-72
2022/11/12 07:37:35;;;;;;;161.35;84.18;;;8.30;99.90;;;;;;5136762;27;20400;-72
2022/11/12 07:40:19;;;;;;;151.43;84.80;;;8.40;99.90;;;;;;5136806;27;20087;-72
2022/11/12 07:43:03;;;;;;;156.38;88.18;;;8.50;99.90;;;;;;5136951;27;20388;-72
2022/11/12 07:45:48;;;;;;;152.38;87.20;;;8.70;99.90;;;;;;5136619;27;20042;-72
2022/11/12 07:48:33;;;;;;;150.40;80.95;;;8.70;99.90;;;;;;5136753;27;20086;-72
2022/11/12 07:51:22;;;;;;;166.80;84.20;;;8.70;99.90;;;;;;5136441;27;20042;-72
2022/11/12 07:54:07;;;;;;;159.10;85.93;;;8.80;99.90;;;;;;5136392;27;20046;-73
2022/11/12 07:56:51;;;;;;;145.75;82.15;;;8.80;99.90;;;;;;5136750;27;20060;-72
2022/11/12 07:59:36;;;;;;;144.00;77.50;;;9.00;99.90;;;;;;5136171;27;20533;-72
2022/11/12 08:02:21;;;;;;;135.77;75.30;;;8.90;99.90;;;;;;5136267;27;20034;-72
2022/11/12 08:05:05;;;;;;;136.73;72.97;;;8.80;99.90;;;;;;5136580;27;20200;-72
2022/11/12 08:07:50;;;;;;;145.52;76.40;;;9.00;99.90;;;;;;5136273;27;20169;-72
2022/11/12 08:10:34;;;;;;;141.48;75.03;;;9.20;99.90;;;;;;5118598;27;20062;-72
2022/11/12 08:13:19;;;;;;;128.77;70.63;;;9.30;99.90;;;;;;5115571;28;20149;-72
2022/11/12 08:16:04;;;;;;;140.77;72.00;;;9.50;99.90;;;;;;5115492;28;20114;-72
2022/11/12 08:18:49;;;;;;;127.28;70.25;;;9.50;99.90;;;;;;5115769;28;20045;-72
2022/11/12 08:21:34;;;;;;;135.27;72.63;;;9.60;99.90;;;;;;5115348;28;20565;-72
2022/11/12 08:24:18;;;;;;;144.50;79.07;;;9.70;99.90;;;;;;5115461;28;20042;-72
2022/11/12 08:27:03;;;;;;;127.40;69.53;;;9.70;99.90;;;;;;5114921;28;20038;-72
2022/11/12 08:29:47;;;;;;;134.15;71.82;;;9.70;99.90;;;;;;5115164;28;20512;-72
2022/11/12 08:32:32;;;;;;;120.53;67.13;;;9.80;99.90;;;;;;5115294;28;20039;-72
2022/11/12 08:35:17;;;;;;;121.65;66.90;;;9.80;99.90;;;;;;5115146;28;20089;-72
2022/11/12 08:38:06;;;;;;;122.15;68.45;;;10.00;99.90;;;;;;5115303;28;20070;-72
2022/11/12 08:40:50;;;;;;;112.55;61.60;;;10.20;99.90;;;;;;5115410;28;20062;-73
2022/11/12 08:43:36;;;;;;;108.88;61.05;;;10.60;99.90;;;;;;5114993;28;20039;-72
2022/11/12 08:46:20;;;;;;;104.57;59.08;;;11.10;99.90;;;;;;5115020;28;20504;-73
2022/11/12 08:49:05;;;;;;;110.82;60.83;;;11.50;99.90;;;;;;5114942;28;20063;-73
2022/11/12 08:51:49;;;;;;;101.72;56.75;;;12.00;99.90;;;;;;5114811;28;20042;-73
2022/11/12 08:54:34;;;;;;;102.57;54.03;;;12.30;99.90;;;;;;5114965;28;20074;-73
2022/11/12 08:57:19;;;;;;;89.93;53.70;;;12.50;99.90;;;;;;5115140;28;20097;-73
2022/11/12 09:00:05;;;;;;;91.85;51.78;;;12.50;99.90;;;;;;5114752;28;20063;-73
2022/11/12 09:02:49;;;;;;;93.28;51.15;;;12.50;99.90;;;;;;5099650;28;20074;-73
2022/11/12 09:05:34;;;;;;;91.65;54.25;;;12.90;99.90;;;;;;5114990;28;20077;-72
2022/11/12 09:08:22;;;;;;;89.22;49.45;;;13.40;99.90;;;;;;5114835;28;20070;-73
2022/11/12 09:11:07;;;;;;;89.97;50.53;;;14.00;99.90;;;;;;5094334;28;20073;-73
2022/11/12 09:13:52;;;;;;;97.07;50.50;;;14.70;97.90;;;;;;5094462;28;20088;-73
2022/11/12 09:16:36;;;;;;;94.32;49.90;;;15.00;95.40;;;;;;5094449;28;20535;-73
2022/11/12 09:19:21;;;;;;;91.95;48.78;;;14.90;94.60;;;;;;5079177;28;20574;-74
2022/11/12 09:22:06;;;;;;;91.28;53.08;;;14.90;94.40;;;;;;5094470;28;20039;-74
2022/11/12 09:24:50;;;;;;;93.18;51.65;;;14.60;93.00;;;;;;5094593;28;20054;-73
2022/11/12 09:27:35;;;;;;;87.43;50.15;;;14.70;93.20;;;;;;5094349;28;20331;-73
2022/11/12 09:30:20;;;;;;;90.32;53.10;;;14.50;94.30;;;;;;5094563;28;20105;-74
2022/11/12 09:33:04;;;;;;;87.38;50.85;;;14.70;93.50;;;;;;5094183;28;20132;-74
2022/11/12 09:35:50;;;;;;;85.00;49.60;;;14.60;92.20;;;;;;5094312;28;20035;-73
2022/11/12 09:38:34;;;;;;;91.78;50.42;;;14.70;92.40;;;;;;5096844;28;20116;-73
2022/11/12 09:41:40;;;;;;;87.93;49.10;;;14.70;92.50;;;;;;5098163;28;20043;-73
2022/11/12 09:44:25;;;;;;;100.18;49.28;;;14.60;92.60;;;;;;5098443;28;20038;-74
2022/11/12 09:47:25;;;;;;;76.32;47.40;;;14.50;93.30;;;;;;5098078;28;20085;-73
2022/11/12 09:50:20;;;;;;;81.80;48.00;;;14.40;93.00;;;;;;5098019;28;20134;-74
2022/11/12 09:53:37;;;;;;;76.90;44.38;;;14.40;93.60;;;;;;5097915;28;20078;-74
2022/11/12 09:56:23;;;;;;;111.28;54.05;;;14.40;93.70;;;;;;5063694;28;20043;-74
2022/11/12 09:59:12;;;;;;;77.55;45.05;;;14.20;93.60;;;;;;5097642;28;20444;-73
2022/11/12 10:02:26;;;;;;;76.63;44.47;;;14.30;94.30;;;;;;5097945;28;20039;-74
2022/11/12 10:05:27;;;;;;;77.25;42.35;;;14.70;93.70;;;;;;5097789;28;20551;-74
2022/11/12 10:08:39;;;;;;;88.32;46.30;;;14.70;92.60;;;;;;5097906;28;20150;-74
2022/11/12 10:18:24;;;;;;;;;;;15.30;92.30;;;;;;5097943;28;20046;-74
2022/11/12 10:21:21;;;;;;;71.65;41.63;;;16.70;91.30;;;;;;5110996;28;19922;-73
2022/11/12 10:24:09;;;;;;;66.75;35.60;;;17.40;87.00;;;;;;5097315;28;20105;-74
2022/11/12 10:26:56;;;;;;;62.10;35.08;;;17.70;83.20;;;;;;5097279;28;20507;-74
2022/11/12 10:30:04;;;;;;;58.08;32.53;;;18.30;80.50;;;;;;5097020;28;20447;-74
2022/11/12 10:32:50;;;;;;;53.97;29.60;;;18.90;75.30;;;;;;5097090;28;20413;-74
2022/11/12 10:35:36;;;;;;;54.47;28.83;;;19.90;71.70;;;;;;5097089;28;20583;-75
2022/11/12 10:38:26;;;;;;;56.67;31.20;;;20.00;67.50;;;;;;5096994;28;20497;-75
2022/11/12 10:41:19;;;;;;;56.10;28.60;;;20.10;68.00;;;;;;5096887;28;20051;-75
2022/11/12 10:44:05;;;;;;;52.20;30.48;;;20.30;65.70;;;;;;5110261;28;20050;-75
2022/11/12 10:46:50;;;;;;;40.83;23.60;;;19.90;64.20;;;;;;5096912;28;20063;-75
2022/11/12 10:49:34;;;;;;;38.78;22.15;;;19.50;65.70;;;;;;5096146;28;20046;-75
2022/11/12 10:52:21;;;;;;;39.33;21.33;;;19.60;62.90;;;;;;5096698;28;20564;-75
2022/11/12 10:55:14;;;;;;;44.67;23.45;;;19.10;63.70;;;;;;5096700;28;20039;-75
2022/11/12 10:58:10;;;;;;;42.30;25.70;;;19.00;66.50;;;;;;5096682;28;20519;-75
2022/11/12 11:00:58;;;;;;;43.58;26.88;;;18.80;68.50;;;;;;5096598;28;20116;-75
2022/11/12 11:03:57;;;;;;;50.75;25.17;;;19.10;65.60;;;;;;5096786;28;20097;-75
2022/11/12 11:06:41;;;;;;;67.47;28.98;;;18.60;65.70;;;;;;5096823;28;20043;-76
2022/11/12 11:09:26;;;;;;;51.08;28.77;;;18.70;68.50;;;;;;5104332;28;20438;-75
2022/11/12 11:12:26;;;;;;;43.97;27.35;;;18.90;67.40;;;;;;5116768;28;20038;-75
2022/11/12 11:15:21;;;;;;;45.80;27.35;;;19.70;68.60;;;;;;5116896;28;20465;-76
2022/11/12 11:18:10;;;;;;;58.20;24.85;;;20.30;62.50;;;;;;5116997;28;20065;-76
2022/11/12 11:21:21;;;;;;;48.55;28.00;;;20.40;62.10;;;;;;5116993;28;20065;-75
2022/11/12 11:24:23;;;;;;;39.15;23.95;;;20.20;63.10;;;;;;5100715;28;20405;-75
2022/11/12 11:27:27;;;;;;;42.33;23.15;;;20.30;60.30;;;;;;5116844;28;20495;-76
2022/11/12 11:30:14;;;;;;;40.70;23.65;;;20.40;60.50;;;;;;5116777;28;20046;-76
2022/11/12 11:33:23;;;;;;;33.05;22.60;;;19.90;62.00;;;;;;5116469;28;20566;-76
2022/11/12 11:36:25;;;;;;;36.83;22.50;;;18.50;63.30;;;;;;5116323;28;20035;-76
2022/11/12 11:39:27;;;;;;;44.33;26.90;;;18.10;66.90;;;;;;5116305;28;20122;-75
2022/11/12 11:42:50;;;;;;;53.20;29.23;;;18.20;68.60;;;;;;5116238;28;20042;-75
2022/11/12 11:46:34;;;;;;;46.08;26.63;;;18.50;65.80;;;;;;5115918;28;20042;-75
2022/11/12 11:49:42;;;;;;;42.40;25.20;;;18.30;67.00;;;;;;4993471;28;20096;-75
2022/11/12 11:52:49;;;;;;;44.60;26.23;;;18.40;66.20;;;;;;4993754;28;20515;-75
2022/11/12 11:55:46;;;;;;;41.10;22.42;;;18.50;69.00;;;;;;4993570;28;20069;-75
2022/11/12 11:59:00;;;;;;;37.17;23.83;;;18.50;66.70;;;;;;4993536;28;20046;-75
2022/11/12 12:01:56;;;;;;;48.53;26.27;;;18.80;66.70;;;;;;4992688;28;20034;-75
2022/11/12 12:05:11;;;;;;;50.85;27.92;;;18.80;65.50;;;;;;4993532;28;20126;-75
2022/11/12 12:08:05;;;;;;;46.90;27.75;;;19.20;64.90;;;;;;4990158;28;20086;-75
2022/11/12 12:11:10;;;;;;;52.47;28.95;;;19.10;64.50;;;;;;4993144;28;20050;-75
2022/11/12 12:14:04;;;;;;;59.30;33.17;;;19.50;63.20;;;;;;4993261;28;20104;-75
2022/11/12 12:17:13;;;;;;;61.65;33.60;;;19.30;63.30;;;;;;4993209;28;20049;-76
2022/11/12 12:20:12;;;;;;;50.20;27.63;;;19.60;62.90;;;;;;5012754;28;20077;-75
2022/11/12 12:23:05;;;;;;;49.13;26.60;;;20.10;62.50;;;;;;5013030;28;20044;-75
2022/11/12 12:25:53;;;;;;;43.47;21.50;;;20.40;60.90;;;;;;5071201;28;20531;-76
2022/11/12 12:28:52;;;;;;;44.40;23.63;;;20.40;58.50;;;;;;5115736;28;20131;-76
2022/11/12 12:31:40;;;;;;;41.92;21.63;;;20.20;58.50;;;;;;5115383;28;20051;-76
2022/11/12 12:34:36;;;;;;;33.25;17.98;;;19.90;59.40;;;;;;5115352;28;20077;-76
2022/11/12 12:37:43;;;;;;;27.45;15.95;;;19.70;59.10;;;;;;5115287;28;20077;-76
2022/11/12 12:40:36;;;;;;;33.08;16.38;;;20.10;59.20;;;;;;5115214;28;20512;-76
2022/11/12 12:43:49;;;;;;;23.25;15.23;;;18.80;60.50;;;;;;5115403;28;20050;-76
2022/11/12 12:46:43;;;;;;;33.90;17.23;;;18.70;63.50;;;;;;5115072;28;20042;-75
2022/11/12 12:49:33;;;;;;;23.52;13.07;;;18.60;60.80;;;;;;5114976;28;20078;-76
2022/11/12 12:52:17;;;;;;;33.58;13.88;;;18.50;61.80;;;;;;5115138;28;20046;-76
2022/11/12 12:55:02;;;;;;;24.58;14.23;;;18.70;61.30;;;;;;5114976;28;20221;-75
2022/11/12 12:57:46;;;;;;;22.27;13.30;;;19.70;60.40;;;;;;5115084;28;20105;-75
2022/11/12 13:00:35;;;;;;;23.98;14.02;;;20.50;58.30;;;;;;5115124;28;20496;-76
2022/11/12 13:03:58;;;;;;;27.92;15.45;;;20.70;55.90;;;;;;5114985;28;20565;-75
2022/11/12 13:06:45;;;;;;;21.75;11.98;;;20.40;57.20;;;;;;5012140;28;20523;-76
2022/11/12 13:09:31;;;;;;;25.10;12.88;;;20.10;57.00;;;;;;5004609;28;20045;-75
2022/11/12 13:15:39;;;;;;;16.67;9.57;;;19.10;59.00;;;;;;4996493;28;20053;-75
2022/11/12 13:18:38;;;;;;;19.52;11.82;;;18.90;59.80;;;;;;4996468;28;20062;-75
2022/11/12 13:21:23;;;;;;;27.23;11.90;;;17.90;61.70;;;;;;4996331;28;20125;-75
2022/11/12 13:24:11;;;;;;;19.52;10.27;;;17.70;63.10;;;;;;4996376;28;20408;-75
2022/11/12 13:26:59;;;;;;;17.67;9.95;;;17.50;65.70;;;;;;4996388;28;20040;-75
2022/11/12 13:29:47;;;;;;;21.10;11.10;;;16.80;65.50;;;;;;4996464;28;20559;-75
2022/11/12 13:32:54;;;;;;;29.48;12.38;;;16.70;67.70;;;;;;4996422;28;20133;-75
2022/11/12 13:35:38;;;;;;;33.50;12.40;;;16.50;67.90;;;;;;4996100;28;20046;-75
2022/11/12 13:38:23;;;;;;;27.67;11.77;;;16.30;70.90;;;;;;5097368;28;20047;-75
2022/11/12 13:42:46;;;;;;;34.25;12.77;;;16.10;72.10;;;;;;5098241;28;20059;-74
2022/11/12 13:44:26;;;;;;;24.85;13.18;;;16.10;72.30;;;;;;5098185;28;20500;-74
2022/11/12 13:47:19;;;;;;;28.05;12.52;;;15.80;73.20;;;;;;5098419;28;20051;-75
2022/11/12 13:50:07;;;;;;;34.80;12.98;;;15.80;73.30;;;;;;5097767;28;20439;-74
2022/11/12 13:52:52;;;;;;;26.02;13.32;;;15.70;74.80;;;;;;5098254;28;20042;-75
2022/11/12 13:55:50;;;;;;;24.40;12.25;;;15.40;75.80;;;;;;5097923;28;20035;-74
2022/11/12 13:58:35;;;;;;;22.27;12.25;;;15.30;77.10;;;;;;5104683;28;20397;-74
2022/11/12 14:01:22;;;;;;;23.40;13.43;;;15.20;78.20;;;;;;5103075;28;20096;-74
2022/11/12 14:04:12;;;;;;;26.98;14.30;;;15.00;76.70;;;;;;5118363;28;20049;-74
2022/11/12 14:07:13;;;;;;;33.53;14.65;;;14.90;78.30;;;;;;5118503;28;20046;-74
2022/11/12 14:10:17;;;;;;;36.70;17.83;;;14.80;80.60;;;;;;5118030;28;20081;-74
2022/11/12 14:13:23;;;;;;;41.22;21.60;;;14.70;80.80;;;;;;5118264;28;20480;-74
2022/11/12 14:16:16;;;;;;;89.38;38.22;;;14.70;82.50;;;;;;5118043;28;20133;-74
2022/11/12 14:19:00;;;;;;;78.20;33.97;;;14.60;81.10;;;;;;5117973;28;20043;-74
2022/11/12 14:22:16;;;;;;;76.90;34.90;;;14.50;82.40;;;;;;5117833;28;20393;-74
2022/11/12 14:25:01;;;;;;;66.07;32.15;;;14.60;82.90;;;;;;5117033;28;20039;-74
2022/11/12 14:27:51;;;;;;;67.15;35.42;;;14.60;83.00;;;;;;5117704;28;20088;-74
2022/11/12 14:30:43;;;;;;;79.57;43.08;;;14.60;82.50;;;;;;5117740;28;20095;-74
2022/11/12 14:33:30;;;;;;;61.38;35.67;;;14.70;81.80;;;;;;5117531;28;20089;-74
2022/11/12 14:36:17;;;;;;;53.45;31.63;;;14.70;81.20;;;;;;5117501;28;20115;-75
2022/11/12 14:39:02;;;;;;;55.20;27.90;;;14.60;80.20;;;;;;5117573;28;20046;-74
2022/11/12 14:41:48;;;;;;;47.88;29.33;;;14.40;79.80;;;;;;5117435;28;20397;-74
2022/11/12 14:44:36;;;;;;;46.72;30.00;;;14.40;79.20;;;;;;5117290;28;20035;-74
2022/11/12 14:47:23;;;;;;;72.93;43.72;;;14.40;79.10;;;;;;5117354;28;20046;-74